Hobart, Oklahoma
Current Conditions -  °F | °C
As of 9:53 PM on Wednesday 26 Nov 2014 (Local Time) from KHBR Reporting Station
Clear Clear  
Wind Chill:   Ceiling: Unl
Heat Index:   Visibility: 10mi
Dew Point: -3°   Wind: 7mph
Humidity: 65%   Direction: 70°ENE
Pressure: 30.42"   Gusts: NA
Location:  35.03°N, 99.09°W
Report Text: KHBR 270353Z AUTO 07006KT 10SM CLR 03/M03 A3042 RMK AO2 SLP306 T00281033
Loading
Personal Weather Stations






























Interactive Weather Map New forecast layout! Learn more

10-Day Weather Forecast

Advertisements
Track Severe Weather on mobile